sensor_id;sensor_type;location;lat;lon;timestamp;temperature;humidity
11389;DHT22;5750;48.474;8.952;2022-08-01T00:02:13;23.30;82.20
11389;DHT22;5750;48.474;8.952;2022-08-01T00:04:40;23.30;83.00
11389;DHT22;5750;48.474;8.952;2022-08-01T00:07:06;23.30;82.70
11389;DHT22;5750;48.474;8.952;2022-08-01T00:09:34;23.20;83.90
11389;DHT22;5750;48.474;8.952;2022-08-01T00:12:01;23.20;84.10
11389;DHT22;5750;48.474;8.952;2022-08-01T00:14:30;23.10;84.10
11389;DHT22;5750;48.474;8.952;2022-08-01T00:16:57;23.10;85.30
11389;DHT22;5750;48.474;8.952;2022-08-01T00:19:24;23.10;85.20
11389;DHT22;5750;48.474;8.952;2022-08-01T00:21:50;23.00;84.90
11389;DHT22;5750;48.474;8.952;2022-08-01T00:24:17;23.00;85.70
11389;DHT22;5750;48.474;8.952;2022-08-01T00:26:45;23.00;85.70
11389;DHT22;5750;48.474;8.952;2022-08-01T00:29:12;22.90;85.50
11389;DHT22;5750;48.474;8.952;2022-08-01T00:31:38;22.90;86.00
11389;DHT22;5750;48.474;8.952;2022-08-01T00:34:05;23.90;87.10
11389;DHT22;5750;48.474;8.952;2022-08-01T00:36:32;22.80;85.40
11389;DHT22;5750;48.474;8.952;2022-08-01T00:38:59;26.40;89.80
11389;DHT22;5750;48.474;8.952;2022-08-01T00:41:25;22.60;85.20
11389;DHT22;5750;48.474;8.952;2022-08-01T00:43:53;22.70;86.10
11389;DHT22;5750;48.474;8.952;2022-08-01T00:46:20;22.70;85.70
11389;DHT22;5750;48.474;8.952;2022-08-01T00:48:47;22.70;86.30
11389;DHT22;5750;48.474;8.952;2022-08-01T00:51:14;22.70;85.30
11389;DHT22;5750;48.474;8.952;2022-08-01T00:53:41;22.40;82.90
11389;DHT22;5750;48.474;8.952;2022-08-01T00:56:08;22.40;84.80
11389;DHT22;5750;48.474;8.952;2022-08-01T00:58:35;22.40;85.50
11389;DHT22;5750;48.474;8.952;2022-08-01T01:01:04;22.40;85.60
11389;DHT22;5750;48.474;8.952;2022-08-01T01:03:31;22.40;85.20
11389;DHT22;5750;48.474;8.952;2022-08-01T01:06:07;22.20;86.60
11389;DHT22;5750;48.474;8.952;2022-08-01T01:08:43;22.20;86.70
11389;DHT22;5750;48.474;8.952;2022-08-01T01:11:17;22.20;86.50
11389;DHT22;5750;48.474;8.952;2022-08-01T01:13:53;22.10;86.30
11389;DHT22;5750;48.474;8.952;2022-08-01T01:16:23;22.10;87.50
11389;DHT22;5750;48.474;8.952;2022-08-01T01:18:54;22.00;86.00
11389;DHT22;5750;48.474;8.952;2022-08-01T01:24:34;22.00;86.70
11389;DHT22;5750;48.474;8.952;2022-08-01T01:27:15;21.90;87.60
11389;DHT22;5750;48.474;8.952;2022-08-01T01:29:49;21.90;88.00
11389;DHT22;5750;48.474;8.952;2022-08-01T01:32:19;21.90;88.00
11389;DHT22;5750;48.474;8.952;2022-08-01T01:34:49;21.80;86.70
11389;DHT22;5750;48.474;8.952;2022-08-01T01:37:19;21.70;88.00
11389;DHT22;5750;48.474;8.952;2022-08-01T01:39:48;21.60;88.10
11389;DHT22;5750;48.474;8.952;2022-08-01T01:42:17;21.60;88.40
11389;DHT22;5750;48.474;8.952;2022-08-01T01:44:46;21.60;88.40
11389;DHT22;5750;48.474;8.952;2022-08-01T01:47:13;21.50;88.70
11389;DHT22;5750;48.474;8.952;2022-08-01T01:49:43;21.60;89.50
11389;DHT22;5750;48.474;8.952;2022-08-01T01:52:12;21.50;89.40
11389;DHT22;5750;48.474;8.952;2022-08-01T01:54:45;21.50;90.00
11389;DHT22;5750;48.474;8.952;2022-08-01T01:57:13;21.50;90.10
11389;DHT22;5750;48.474;8.952;2022-08-01T01:59:41;21.50;90.00
11389;DHT22;5750;48.474;8.952;2022-08-01T02:02:10;21.40;89.90
11389;DHT22;5750;48.474;8.952;2022-08-01T02:04:40;21.40;89.90
11389;DHT22;5750;48.474;8.952;2022-08-01T02:07:09;21.30;89.90
11389;DHT22;5750;48.474;8.952;2022-08-01T02:09:37;21.40;90.10
11389;DHT22;5750;48.474;8.952;2022-08-01T02:12:07;21.30;90.00
11389;DHT22;5750;48.474;8.952;2022-08-01T02:14:37;21.30;90.30
11389;DHT22;5750;48.474;8.952;2022-08-01T02:17:05;21.30;90.10
11389;DHT22;5750;48.474;8.952;2022-08-01T02:19:33;21.30;90.50
11389;DHT22;5750;48.474;8.952;2022-08-01T02:22:02;21.20;89.70
11389;DHT22;5750;48.474;8.952;2022-08-01T02:24:36;21.10;89.20
11389;DHT22;5750;48.474;8.952;2022-08-01T02:27:07;21.30;89.60
11389;DHT22;5750;48.474;8.952;2022-08-01T02:29:39;20.80;89.80
11389;DHT22;5750;48.474;8.952;2022-08-01T02:32:08;20.80;90.40
11389;DHT22;5750;48.474;8.952;2022-08-01T02:34:39;20.80;89.80
11389;DHT22;5750;48.474;8.952;2022-08-01T02:37:07;20.70;90.00
11389;DHT22;5750;48.474;8.952;2022-08-01T02:39:36;20.70;90.50
11389;DHT22;5750;48.474;8.952;2022-08-01T02:42:06;20.70;90.50
11389;DHT22;5750;48.474;8.952;2022-08-01T02:44:37;20.70;90.10
11389;DHT22;5750;48.474;8.952;2022-08-01T02:47:06;20.70;90.50
11389;DHT22;5750;48.474;8.952;2022-08-01T02:49:35;20.70;90.50
11389;DHT22;5750;48.474;8.952;2022-08-01T02:52:07;20.70;90.50
11389;DHT22;5750;48.474;8.952;2022-08-01T02:54:35;20.70;90.50
11389;DHT22;5750;48.474;8.952;2022-08-01T02:57:03;20.50;90.60
11389;DHT22;5750;48.474;8.952;2022-08-01T03:00:09;20.50;90.80
11389;DHT22;5750;48.474;8.952;2022-08-01T03:02:37;20.50;91.20
11389;DHT22;5750;48.474;8.952;2022-08-01T03:05:06;20.50;91.10
11389;DHT22;5750;48.474;8.952;2022-08-01T03:07:36;20.50;91.00
11389;DHT22;5750;48.474;8.952;2022-08-01T03:10:05;20.50;90.90
11389;DHT22;5750;48.474;8.952;2022-08-01T03:12:34;20.50;91.50
11389;DHT22;5750;48.474;8.952;2022-08-01T03:15:02;20.50;91.20
11389;DHT22;5750;48.474;8.952;2022-08-01T03:17:31;20.50;91.20
11389;DHT22;5750;48.474;8.952;2022-08-01T03:19:59;20.50;91.50
11389;DHT22;5750;48.474;8.952;2022-08-01T03:22:29;20.50;91.30
11389;DHT22;5750;48.474;8.952;2022-08-01T03:24:58;20.40;91.60
11389;DHT22;5750;48.474;8.952;2022-08-01T03:27:27;20.30;91.40
11389;DHT22;5750;48.474;8.952;2022-08-01T03:29:55;20.40;91.50
11389;DHT22;5750;48.474;8.952;2022-08-01T03:32:24;20.40;91.40
11389;DHT22;5750;48.474;8.952;2022-08-01T03:34:52;20.30;91.30
11389;DHT22;5750;48.474;8.952;2022-08-01T03:37:23;20.20;90.90
11389;DHT22;5750;48.474;8.952;2022-08-01T03:39:54;20.20;91.40
11389;DHT22;5750;48.474;8.952;2022-08-01T03:42:28;20.20;91.50
11389;DHT22;5750;48.474;8.952;2022-08-01T03:45:00;20.10;91.50
11389;DHT22;5750;48.474;8.952;2022-08-01T03:47:31;20.10;91.70
11389;DHT22;5750;48.474;8.952;2022-08-01T03:50:01;20.10;91.90
11389;DHT22;5750;48.474;8.952;2022-08-01T03:52:30;20.10;91.40
11389;DHT22;5750;48.474;8.952;2022-08-01T03:55:00;20.10;91.70
11389;DHT22;5750;48.474;8.952;2022-08-01T03:57:29;20.10;91.80
11389;DHT22;5750;48.474;8.952;2022-08-01T03:59:57;20.10;91.50
11389;DHT22;5750;48.474;8.952;2022-08-01T04:02:25;20.10;91.40
11389;DHT22;5750;48.474;8.952;2022-08-01T04:04:52;20.10;91.40
11389;DHT22;5750;48.474;8.952;2022-08-01T04:07:24;20.10;91.70
11389;DHT22;5750;48.474;8.952;2022-08-01T04:09:51;20.10;91.70
11389;DHT22;5750;48.474;8.952;2022-08-01T04:12:18;20.10;91.80
11389;DHT22;5750;48.474;8.952;2022-08-01T04:14:47;20.10;92.00
11389;DHT22;5750;48.474;8.952;2022-08-01T04:17:14;20.10;91.40
11389;DHT22;5750;48.474;8.952;2022-08-01T04:19:41;20.10;91.50
11389;DHT22;5750;48.474;8.952;2022-08-01T04:22:09;20.10;91.80
11389;DHT22;5750;48.474;8.952;2022-08-01T04:24:36;20.00;91.70
11389;DHT22;5750;48.474;8.952;2022-08-01T04:27:06;19.90;91.60
11389;DHT22;5750;48.474;8.952;2022-08-01T04:29:35;19.90;91.80
11389;DHT22;5750;48.474;8.952;2022-08-01T04:32:05;19.90;92.10
11389;DHT22;5750;48.474;8.952;2022-08-01T04:34:33;19.90;92.10
11389;DHT22;5750;48.474;8.952;2022-08-01T04:37:01;19.90;92.20
11389;DHT22;5750;48.474;8.952;2022-08-01T04:39:31;20.00;92.20
11389;DHT22;5750;48.474;8.952;2022-08-01T04:42:04;20.00;92.20
11389;DHT22;5750;48.474;8.952;2022-08-01T04:44:31;19.90;91.90
11389;DHT22;5750;48.474;8.952;2022-08-01T04:46:59;19.90;92.20
11389;DHT22;5750;48.474;8.952;2022-08-01T04:49:31;19.90;92.20
11389;DHT22;5750;48.474;8.952;2022-08-01T04:51:58;19.90;92.00
11389;DHT22;5750;48.474;8.952;2022-08-01T04:54:26;19.90;92.50
11389;DHT22;5750;48.474;8.952;2022-08-01T04:56:53;19.90;92.10
11389;DHT22;5750;48.474;8.952;2022-08-01T04:59:21;20.00;92.90
11389;DHT22;5750;48.474;8.952;2022-08-01T05:02:06;20.10;92.30
11389;DHT22;5750;48.474;8.952;2022-08-01T05:04:35;20.10;92.40
11389;DHT22;5750;48.474;8.952;2022-08-01T05:07:02;20.10;92.60
11389;DHT22;5750;48.474;8.952;2022-08-01T05:09:29;20.10;92.60
11389;DHT22;5750;48.474;8.952;2022-08-01T05:11:56;20.00;92.60
11389;DHT22;5750;48.474;8.952;2022-08-01T05:14:23;19.90;93.00
11389;DHT22;5750;48.474;8.952;2022-08-01T05:16:50;20.00;93.20
11389;DHT22;5750;48.474;8.952;2022-08-01T05:19:18;20.00;93.20
11389;DHT22;5750;48.474;8.952;2022-08-01T05:21:46;20.10;93.20
11389;DHT22;5750;48.474;8.952;2022-08-01T05:24:13;20.10;93.00
11389;DHT22;5750;48.474;8.952;2022-08-01T05:26:39;20.10;93.00
11389;DHT22;5750;48.474;8.952;2022-08-01T05:29:06;20.10;93.00
11389;DHT22;5750;48.474;8.952;2022-08-01T05:31:33;20.10;93.10
11389;DHT22;5750;48.474;8.952;2022-08-01T05:34:00;20.20;93.20
11389;DHT22;5750;48.474;8.952;2022-08-01T05:36:27;20.20;93.20
11389;DHT22;5750;48.474;8.952;2022-08-01T05:38:55;20.30;93.50
11389;DHT22;5750;48.474;8.952;2022-08-01T05:41:22;20.40;93.50
11389;DHT22;5750;48.474;8.952;2022-08-01T05:43:49;20.70;93.60
11389;DHT22;5750;48.474;8.952;2022-08-01T05:46:15;21.40;93.80
11389;DHT22;5750;48.474;8.952;2022-08-01T05:48:42;20.50;93.20
11389;DHT22;5750;48.474;8.952;2022-08-01T05:51:09;20.50;93.20
11389;DHT22;5750;48.474;8.952;2022-08-01T05:53:35;20.60;93.20
11389;DHT22;5750;48.474;8.952;2022-08-01T05:56:04;20.50;93.00
11389;DHT22;5750;48.474;8.952;2022-08-01T05:58:31;20.60;93.30
11389;DHT22;5750;48.474;8.952;2022-08-01T06:00:58;21.10;93.10
11389;DHT22;5750;48.474;8.952;2022-08-01T06:03:25;20.80;93.40
11389;DHT22;5750;48.474;8.952;2022-08-01T06:05:51;20.80;92.70
11389;DHT22;5750;48.474;8.952;2022-08-01T06:08:18;20.90;93.10
11389;DHT22;5750;48.474;8.952;2022-08-01T06:10:45;20.90;93.10
11389;DHT22;5750;48.474;8.952;2022-08-01T06:13:13;21.00;92.70
11389;DHT22;5750;48.474;8.952;2022-08-01T06:15:41;21.70;92.90
11389;DHT22;5750;48.474;8.952;2022-08-01T06:18:08;21.00;92.40
11389;DHT22;5750;48.474;8.952;2022-08-01T06:20:35;21.10;92.60
11389;DHT22;5750;48.474;8.952;2022-08-01T06:23:01;21.20;92.60
11389;DHT22;5750;48.474;8.952;2022-08-01T06:25:28;21.20;92.40
11389;DHT22;5750;48.474;8.952;2022-08-01T06:27:55;21.30;92.90
11389;DHT22;5750;48.474;8.952;2022-08-01T06:30:23;21.30;93.00
11389;DHT22;5750;48.474;8.952;2022-08-01T06:32:50;21.60;92.70
11389;DHT22;5750;48.474;8.952;2022-08-01T06:35:17;21.60;92.90
11389;DHT22;5750;48.474;8.952;2022-08-01T06:37:44;21.60;92.30
11389;DHT22;5750;48.474;8.952;2022-08-01T06:40:12;21.60;92.60
11389;DHT22;5750;48.474;8.952;2022-08-01T06:42:38;21.60;92.30
11389;DHT22;5750;48.474;8.952;2022-08-01T06:45:07;21.70;92.60
11389;DHT22;5750;48.474;8.952;2022-08-01T06:47:36;21.70;92.60
11389;DHT22;5750;48.474;8.952;2022-08-01T06:50:03;21.90;93.10
11389;DHT22;5750;48.474;8.952;2022-08-01T06:52:30;22.00;93.30
11389;DHT22;5750;48.474;8.952;2022-08-01T06:54:57;22.10;93.00
11389;DHT22;5750;48.474;8.952;2022-08-01T06:57:24;22.10;92.50
11389;DHT22;5750;48.474;8.952;2022-08-01T06:59:52;22.70;93.40
11389;DHT22;5750;48.474;8.952;2022-08-01T07:02:18;22.50;92.80
11389;DHT22;5750;48.474;8.952;2022-08-01T07:04:46;22.70;92.50
11389;DHT22;5750;48.474;8.952;2022-08-01T07:07:13;23.00;92.60
11389;DHT22;5750;48.474;8.952;2022-08-01T07:09:40;23.30;92.30
11389;DHT22;5750;48.474;8.952;2022-08-01T07:12:08;23.50;92.60
11389;DHT22;5750;48.474;8.952;2022-08-01T07:14:34;23.60;91.80
11389;DHT22;5750;48.474;8.952;2022-08-01T07:17:01;23.80;91.60
11389;DHT22;5750;48.474;8.952;2022-08-01T07:19:28;24.20;91.80
11389;DHT22;5750;48.474;8.952;2022-08-01T07:21:56;24.50;91.40
11389;DHT22;5750;48.474;8.952;2022-08-01T07:24:23;24.60;90.90
11389;DHT22;5750;48.474;8.952;2022-08-01T07:26:49;24.80;90.70
11389;DHT22;5750;48.474;8.952;2022-08-01T07:29:16;25.10;90.80
11389;DHT22;5750;48.474;8.952;2022-08-01T07:31:43;25.30;90.30
11389;DHT22;5750;48.474;8.952;2022-08-01T07:34:09;25.30;90.30
11389;DHT22;5750;48.474;8.952;2022-08-01T07:36:36;25.70;89.40
11389;DHT22;5750;48.474;8.952;2022-08-01T07:39:04;25.80;88.10
11389;DHT22;5750;48.474;8.952;2022-08-01T07:41:31;26.10;85.30
11389;DHT22;5750;48.474;8.952;2022-08-01T07:43:58;26.30;87.20
11389;DHT22;5750;48.474;8.952;2022-08-01T07:46:25;26.40;85.90
11389;DHT22;5750;48.474;8.952;2022-08-01T07:48:51;26.50;86.00
11389;DHT22;5750;48.474;8.952;2022-08-01T07:51:18;26.70;84.20
11389;DHT22;5750;48.474;8.952;2022-08-01T07:53:45;26.80;84.40
11389;DHT22;5750;48.474;8.952;2022-08-01T07:56:13;27.10;83.90
11389;DHT22;5750;48.474;8.952;2022-08-01T07:58:40;27.20;81.70
11389;DHT22;5750;48.474;8.952;2022-08-01T08:01:06;27.20;81.30
11389;DHT22;5750;48.474;8.952;2022-08-01T08:03:33;27.40;81.30
11389;DHT22;5750;48.474;8.952;2022-08-01T08:06:00;27.50;81.70
11389;DHT22;5750;48.474;8.952;2022-08-01T08:08:27;27.40;80.00
11389;DHT22;5750;48.474;8.952;2022-08-01T08:10:53;27.50;79.70
11389;DHT22;5750;48.474;8.952;2022-08-01T08:13:21;27.70;80.70
11389;DHT22;5750;48.474;8.952;2022-08-01T08:15:48;27.90;79.40
11389;DHT22;5750;48.474;8.952;2022-08-01T08:18:15;28.00;80.40
11389;DHT22;5750;48.474;8.952;2022-08-01T08:20:42;28.30;79.80
11389;DHT22;5750;48.474;8.952;2022-08-01T08:23:09;28.40;77.90
11389;DHT22;5750;48.474;8.952;2022-08-01T08:25:50;28.40;78.30
11389;DHT22;5750;48.474;8.952;2022-08-01T08:28:16;28.40;78.20
11389;DHT22;5750;48.474;8.952;2022-08-01T08:30:44;28.60;76.70
11389;DHT22;5750;48.474;8.952;2022-08-01T08:33:11;28.70;77.30
11389;DHT22;5750;48.474;8.952;2022-08-01T08:35:39;28.70;77.30
11389;DHT22;5750;48.474;8.952;2022-08-01T08:38:06;29.00;76.00
11389;DHT22;5750;48.474;8.952;2022-08-01T08:40:35;29.10;75.40
11389;DHT22;5750;48.474;8.952;2022-08-01T08:43:04;29.00;74.80
11389;DHT22;5750;48.474;8.952;2022-08-01T08:45:31;29.10;74.50
11389;DHT22;5750;48.474;8.952;2022-08-01T08:48:00;29.00;75.20
11389;DHT22;5750;48.474;8.952;2022-08-01T08:50:28;29.10;76.80
11389;DHT22;5750;48.474;8.952;2022-08-01T08:52:55;29.30;75.00
11389;DHT22;5750;48.474;8.952;2022-08-01T08:55:22;29.50;74.60
11389;DHT22;5750;48.474;8.952;2022-08-01T08:57:50;29.90;72.80
11389;DHT22;5750;48.474;8.952;2022-08-01T09:00:18;29.90;72.60
11389;DHT22;5750;48.474;8.952;2022-08-01T09:02:46;29.90;72.60
11389;DHT22;5750;48.474;8.952;2022-08-01T09:05:15;29.60;72.50
11389;DHT22;5750;48.474;8.952;2022-08-01T09:07:44;29.10;73.00
11389;DHT22;5750;48.474;8.952;2022-08-01T09:10:10;29.10;74.80
11389;DHT22;5750;48.474;8.952;2022-08-01T09:12:37;29.30;73.50
11389;DHT22;5750;48.474;8.952;2022-08-01T09:15:05;29.30;73.40
11389;DHT22;5750;48.474;8.952;2022-08-01T09:17:39;29.40;73.10
11389;DHT22;5750;48.474;8.952;2022-08-01T09:20:07;29.50;73.90
11389;DHT22;5750;48.474;8.952;2022-08-01T09:22:49;29.70;72.40
11389;DHT22;5750;48.474;8.952;2022-08-01T09:25:16;30.00;72.90
11389;DHT22;5750;48.474;8.952;2022-08-01T09:27:43;30.30;72.00
11389;DHT22;5750;48.474;8.952;2022-08-01T09:30:12;30.50;71.20
11389;DHT22;5750;48.474;8.952;2022-08-01T09:32:56;30.90;70.40
11389;DHT22;5750;48.474;8.952;2022-08-01T09:35:25;31.10;68.50
11389;DHT22;5750;48.474;8.952;2022-08-01T09:38:11;31.20;70.00
11389;DHT22;5750;48.474;8.952;2022-08-01T09:40:50;31.20;69.70
11389;DHT22;5750;48.474;8.952;2022-08-01T09:43:17;31.30;67.40
11389;DHT22;5750;48.474;8.952;2022-08-01T09:45:44;31.10;68.50
11389;DHT22;5750;48.474;8.952;2022-08-01T09:48:11;31.10;69.50
11389;DHT22;5750;48.474;8.952;2022-08-01T09:50:39;30.70;66.80
11389;DHT22;5750;48.474;8.952;2022-08-01T09:53:08;30.20;67.80
11389;DHT22;5750;48.474;8.952;2022-08-01T09:55:35;30.00;68.50
11389;DHT22;5750;48.474;8.952;2022-08-01T09:58:03;30.10;69.40
11389;DHT22;5750;48.474;8.952;2022-08-01T10:00:31;30.00;69.60
11389;DHT22;5750;48.474;8.952;2022-08-01T10:02:58;30.00;72.10
11389;DHT22;5750;48.474;8.952;2022-08-01T10:05:33;29.90;70.80
11389;DHT22;5750;48.474;8.952;2022-08-01T10:08:03;29.80;70.70
11389;DHT22;5750;48.474;8.952;2022-08-01T10:10:31;29.50;70.40
11389;DHT22;5750;48.474;8.952;2022-08-01T10:12:59;29.30;69.20
11389;DHT22;5750;48.474;8.952;2022-08-01T10:15:29;29.70;72.00
11389;DHT22;5750;48.474;8.952;2022-08-01T10:17:58;29.70;71.30
11389;DHT22;5750;48.474;8.952;2022-08-01T10:20:29;29.70;74.00
11389;DHT22;5750;48.474;8.952;2022-08-01T10:22:59;29.70;72.50
11389;DHT22;5750;48.474;8.952;2022-08-01T10:25:27;29.50;71.50
11389;DHT22;5750;48.474;8.952;2022-08-01T10:27:56;29.20;71.60
11389;DHT22;5750;48.474;8.952;2022-08-01T10:30:26;29.00;72.30
11389;DHT22;5750;48.474;8.952;2022-08-01T10:32:54;28.90;72.00
11389;DHT22;5750;48.474;8.952;2022-08-01T10:35:22;29.10;73.20
11389;DHT22;5750;48.474;8.952;2022-08-01T10:37:49;30.00;72.40
11389;DHT22;5750;48.474;8.952;2022-08-01T10:40:17;30.70;68.60
11389;DHT22;5750;48.474;8.952;2022-08-01T10:42:45;30.90;70.60
11389;DHT22;5750;48.474;8.952;2022-08-01T10:45:14;30.60;68.60
11389;DHT22;5750;48.474;8.952;2022-08-01T10:47:45;30.40;68.20
11389;DHT22;5750;48.474;8.952;2022-08-01T10:50:19;30.00;69.10
11389;DHT22;5750;48.474;8.952;2022-08-01T10:53:07;29.90;68.10
11389;DHT22;5750;48.474;8.952;2022-08-01T10:55:48;29.90;69.60
11389;DHT22;5750;48.474;8.952;2022-08-01T10:58:21;29.70;69.80
11389;DHT22;5750;48.474;8.952;2022-08-01T11:01:13;29.40;69.90
11389;DHT22;5750;48.474;8.952;2022-08-01T11:03:40;29.40;71.20
11389;DHT22;5750;48.474;8.952;2022-08-01T11:06:15;29.30;70.30
11389;DHT22;5750;48.474;8.952;2022-08-01T11:08:51;29.40;72.30
11389;DHT22;5750;48.474;8.952;2022-08-01T11:11:19;28.20;73.20
11389;DHT22;5750;48.474;8.952;2022-08-01T11:14:02;29.40;73.20
11389;DHT22;5750;48.474;8.952;2022-08-01T11:16:35;29.50;74.30
11389;DHT22;5750;48.474;8.952;2022-08-01T11:19:03;29.40;73.10
11389;DHT22;5750;48.474;8.952;2022-08-01T11:21:57;29.30;73.50
11389;DHT22;5750;48.474;8.952;2022-08-01T11:24:55;29.20;73.60
11389;DHT22;5750;48.474;8.952;2022-08-01T11:27:32;29.10;75.00
11389;DHT22;5750;48.474;8.952;2022-08-01T11:30:24;29.00;76.60
11389;DHT22;5750;48.474;8.952;2022-08-01T11:32:57;29.00;77.00
11389;DHT22;5750;48.474;8.952;2022-08-01T11:35:24;29.00;75.90
11389;DHT22;5750;48.474;8.952;2022-08-01T11:37:52;29.10;75.60
11389;DHT22;5750;48.474;8.952;2022-08-01T11:40:22;29.10;76.00
11389;DHT22;5750;48.474;8.952;2022-08-01T11:42:51;29.30;74.50
11389;DHT22;5750;48.474;8.952;2022-08-01T11:45:47;29.40;76.00
11389;DHT22;5750;48.474;8.952;2022-08-01T11:48:19;29.50;75.70
11389;DHT22;5750;48.474;8.952;2022-08-01T11:50:46;29.60;74.20
11389;DHT22;5750;48.474;8.952;2022-08-01T11:53:13;29.50;73.40
11389;DHT22;5750;48.474;8.952;2022-08-01T11:55:45;29.60;72.10
11389;DHT22;5750;48.474;8.952;2022-08-01T11:58:12;29.60;72.90
11389;DHT22;5750;48.474;8.952;2022-08-01T12:00:39;29.60;75.20
11389;DHT22;5750;48.474;8.952;2022-08-01T12:03:07;29.60;75.20
11389;DHT22;5750;48.474;8.952;2022-08-01T12:05:35;29.70;75.40
11389;DHT22;5750;48.474;8.952;2022-08-01T12:08:03;29.50;74.40
11389;DHT22;5750;48.474;8.952;2022-08-01T12:10:33;29.40;72.80
11389;DHT22;5750;48.474;8.952;2022-08-01T12:13:04;29.40;74.30
11389;DHT22;5750;48.474;8.952;2022-08-01T12:15:33;29.30;74.90
11389;DHT22;5750;48.474;8.952;2022-08-01T12:18:01;29.20;75.10
11389;DHT22;5750;48.474;8.952;2022-08-01T12:20:30;29.20;74.00
11389;DHT22;5750;48.474;8.952;2022-08-01T12:23:00;29.20;74.30
11389;DHT22;5750;48.474;8.952;2022-08-01T12:25:28;29.10;77.70
11389;DHT22;5750;48.474;8.952;2022-08-01T12:27:59;29.10;76.10
11389;DHT22;5750;48.474;8.952;2022-08-01T12:30:26;29.30;76.00
11389;DHT22;5750;48.474;8.952;2022-08-01T12:32:56;29.50;74.90
11389;DHT22;5750;48.474;8.952;2022-08-01T12:35:24;29.80;74.00
11389;DHT22;5750;48.474;8.952;2022-08-01T12:37:53;30.00;76.20
11389;DHT22;5750;48.474;8.952;2022-08-01T12:40:23;30.20;75.90
11389;DHT22;5750;48.474;8.952;2022-08-01T12:42:51;30.40;73.70
11389;DHT22;5750;48.474;8.952;2022-08-01T12:45:20;30.60;70.10
11389;DHT22;5750;48.474;8.952;2022-08-01T12:47:48;30.70;72.20
11389;DHT22;5750;48.474;8.952;2022-08-01T12:50:20;30.60;70.80
11389;DHT22;5750;48.474;8.952;2022-08-01T12:52:47;30.70;71.10
11389;DHT22;5750;48.474;8.952;2022-08-01T12:55:15;30.60;70.00
11389;DHT22;5750;48.474;8.952;2022-08-01T12:57:46;30.50;69.50
11389;DHT22;5750;48.474;8.952;2022-08-01T13:00:20;30.30;69.20
11389;DHT22;5750;48.474;8.952;2022-08-01T13:02:49;30.20;72.40
11389;DHT22;5750;48.474;8.952;2022-08-01T13:05:16;30.30;72.60
11389;DHT22;5750;48.474;8.952;2022-08-01T13:07:46;30.20;71.20
11389;DHT22;5750;48.474;8.952;2022-08-01T13:10:23;30.30;70.70
11389;DHT22;5750;48.474;8.952;2022-08-01T13:12:53;30.20;68.70
11389;DHT22;5750;48.474;8.952;2022-08-01T13:15:24;30.20;69.60
11389;DHT22;5750;48.474;8.952;2022-08-01T13:17:53;30.10;73.60
11389;DHT22;5750;48.474;8.952;2022-08-01T13:20:28;30.10;70.10
11389;DHT22;5750;48.474;8.952;2022-08-01T13:22:55;30.00;70.00
11389;DHT22;5750;48.474;8.952;2022-08-01T13:25:47;30.00;71.80
11389;DHT22;5750;48.474;8.952;2022-08-01T13:28:16;30.00;72.30
11389;DHT22;5750;48.474;8.952;2022-08-01T13:30:51;30.00;72.50
11389;DHT22;5750;48.474;8.952;2022-08-01T13:33:18;30.00;72.50
11389;DHT22;5750;48.474;8.952;2022-08-01T13:35:45;30.00;73.90
11389;DHT22;5750;48.474;8.952;2022-08-01T13:38:13;30.10;72.40
11389;DHT22;5750;48.474;8.952;2022-08-01T13:40:39;30.10;71.90
11389;DHT22;5750;48.474;8.952;2022-08-01T13:43:06;30.10;72.20
11389;DHT22;5750;48.474;8.952;2022-08-01T13:45:34;30.10;68.90
11389;DHT22;5750;48.474;8.952;2022-08-01T13:48:02;30.20;68.90
11389;DHT22;5750;48.474;8.952;2022-08-01T13:50:29;30.10;68.80
11389;DHT22;5750;48.474;8.952;2022-08-01T13:52:56;30.10;69.60
11389;DHT22;5750;48.474;8.952;2022-08-01T13:55:22;30.10;66.70
11389;DHT22;5750;48.474;8.952;2022-08-01T13:57:49;30.30;67.00
11389;DHT22;5750;48.474;8.952;2022-08-01T14:00:16;30.30;65.70
11389;DHT22;5750;48.474;8.952;2022-08-01T14:02:44;30.40;67.40
11389;DHT22;5750;48.474;8.952;2022-08-01T14:05:11;30.60;67.70
11389;DHT22;5750;48.474;8.952;2022-08-01T14:07:38;29.40;65.90
11389;DHT22;5750;48.474;8.952;2022-08-01T14:10:05;30.70;67.10
11389;DHT22;5750;48.474;8.952;2022-08-01T14:12:32;30.50;66.50
11389;DHT22;5750;48.474;8.952;2022-08-01T14:14:58;30.40;65.30
11389;DHT22;5750;48.474;8.952;2022-08-01T14:17:25;30.30;68.40
11389;DHT22;5750;48.474;8.952;2022-08-01T14:19:53;30.40;68.20
11389;DHT22;5750;48.474;8.952;2022-08-01T14:22:21;30.30;67.10
11389;DHT22;5750;48.474;8.952;2022-08-01T14:24:48;30.20;68.50
11389;DHT22;5750;48.474;8.952;2022-08-01T14:27:15;30.10;68.00
11389;DHT22;5750;48.474;8.952;2022-08-01T14:29:41;30.10;70.10
11389;DHT22;5750;48.474;8.952;2022-08-01T14:32:08;30.00;68.80
11389;DHT22;5750;48.474;8.952;2022-08-01T14:34:35;30.00;71.10
11389;DHT22;5750;48.474;8.952;2022-08-01T14:37:03;30.00;71.00
11389;DHT22;5750;48.474;8.952;2022-08-01T14:39:30;29.90;70.80
11389;DHT22;5750;48.474;8.952;2022-08-01T14:41:56;29.80;69.50
11389;DHT22;5750;48.474;8.952;2022-08-01T14:44:23;29.80;69.80
11389;DHT22;5750;48.474;8.952;2022-08-01T14:46:50;29.80;70.00
11389;DHT22;5750;48.474;8.952;2022-08-01T14:49:16;29.80;70.40
11389;DHT22;5750;48.474;8.952;2022-08-01T14:51:43;29.70;70.50
11389;DHT22;5750;48.474;8.952;2022-08-01T14:54:11;29.80;70.80
11389;DHT22;5750;48.474;8.952;2022-08-01T14:56:38;29.90;71.60
11389;DHT22;5750;48.474;8.952;2022-08-01T14:59:05;29.80;72.50
11389;DHT22;5750;48.474;8.952;2022-08-01T15:01:32;29.70;71.70
11389;DHT22;5750;48.474;8.952;2022-08-01T15:03:59;29.70;71.50
11389;DHT22;5750;48.474;8.952;2022-08-01T15:06:26;29.70;72.40
11389;DHT22;5750;48.474;8.952;2022-08-01T15:08:52;29.70;72.60
11389;DHT22;5750;48.474;8.952;2022-08-01T15:11:20;29.60;73.10
11389;DHT22;5750;48.474;8.952;2022-08-01T15:13:47;29.60;73.00
11389;DHT22;5750;48.474;8.952;2022-08-01T15:16:35;29.80;74.70
11389;DHT22;5750;48.474;8.952;2022-08-01T15:19:02;29.80;71.80
11389;DHT22;5750;48.474;8.952;2022-08-01T15:21:29;29.80;72.70
11389;DHT22;5750;48.474;8.952;2022-08-01T15:23:56;26.00;72.10
11389;DHT22;5750;48.474;8.952;2022-08-01T15:26:24;29.80;73.80
11389;DHT22;5750;48.474;8.952;2022-08-01T15:28:50;29.80;72.80
11389;DHT22;5750;48.474;8.952;2022-08-01T15:31:18;29.80;74.40
11389;DHT22;5750;48.474;8.952;2022-08-01T15:33:44;29.80;75.40
11389;DHT22;5750;48.474;8.952;2022-08-01T15:36:11;30.00;75.60
11389;DHT22;5750;48.474;8.952;2022-08-01T15:38:38;29.90;73.50
11389;DHT22;5750;48.474;8.952;2022-08-01T15:41:07;29.90;72.60
11389;DHT22;5750;48.474;8.952;2022-08-01T15:43:35;29.80;73.60
11389;DHT22;5750;48.474;8.952;2022-08-01T15:46:03;29.60;69.40
11389;DHT22;5750;48.474;8.952;2022-08-01T15:48:30;29.70;71.40
11389;DHT22;5750;48.474;8.952;2022-08-01T15:50:57;29.50;70.30
11389;DHT22;5750;48.474;8.952;2022-08-01T15:53:24;29.60;69.80
11389;DHT22;5750;48.474;8.952;2022-08-01T15:55:50;29.40;66.50
11389;DHT22;5750;48.474;8.952;2022-08-01T15:58:17;29.40;68.50
11389;DHT22;5750;48.474;8.952;2022-08-01T16:00:45;29.40;69.00